Time;durP1;ratioP1;P1;durP2;ratioP2;P2;SDS_P1;SDS_P2;PMS_P1;PMS_P2;Temp;Humidity;BMP_temperature;BMP_pressure;BME280_temperature;BME280_humidity;BME280_pressure;Samples;Min_cycle;Max_cycle;Signal;HPM_P1;HPM_P2
2022/03/12 00:00:42;;;;;;;6.50;2.67;;;;;;;-5.08;40.51;100055.81;5019318;28;20064;-82
2022/03/12 00:03:08;;;;;;;10.10;3.05;;;;;;;-5.15;41.37;100060.47;5016432;28;20072;-83
2022/03/12 00:05:35;;;;;;;6.53;2.88;;;;;;;-5.18;40.74;100054.31;5039187;28;20032;-83
2022/03/12 00:08:04;;;;;;;5.35;2.80;;;;;;;-5.14;41.61;100049.56;5036715;28;20044;-82
2022/03/12 00:10:32;;;;;;;5.95;2.47;;;;;;;-5.17;41.38;100049.38;5036313;28;20037;-83
2022/03/12 00:12:59;;;;;;;7.45;2.88;;;;;;;-5.20;41.59;100049.16;5019672;28;20045;-81
2022/03/12 00:15:25;;;;;;;7.28;2.80;;;;;;;-5.24;41.85;100052.28;5036843;28;20055;-81
2022/03/12 00:17:52;;;;;;;6.88;2.85;;;;;;;-5.30;42.47;100046.84;5037356;28;20049;-81
2022/03/12 00:20:18;;;;;;;7.28;2.90;;;;;;;-5.38;42.42;100037.88;5047276;28;20377;-82
2022/03/12 00:22:47;;;;;;;5.38;2.53;;;;;;;-5.42;41.90;100044.38;5028824;28;20128;-81
2022/03/12 00:25:22;;;;;;;6.10;2.85;;;;;;;-5.50;42.99;100039.59;5036072;28;20432;-81
2022/03/12 00:27:50;;;;;;;5.82;2.78;;;;;;;-5.55;43.04;100034.22;5052334;28;20114;-82
2022/03/12 00:30:24;;;;;;;7.78;2.65;;;;;;;-5.55;42.57;100035.88;5018070;28;20035;-82
2022/03/12 00:32:50;;;;;;;7.85;2.90;;;;;;;-5.58;43.39;100033.19;5027967;28;20127;-83
2022/03/12 00:35:16;;;;;;;6.25;3.33;;;;;;;-5.65;43.21;100026.84;5052574;28;20032;-83
2022/03/12 00:37:42;;;;;;;;;;;;;;;-5.70;42.75;100025.66;5020574;28;20103;-83
2022/03/12 00:40:07;;;;;;;4.90;2.50;;;;;;;-5.74;43.10;100019.53;5033072;28;19912;-84
2022/03/12 00:42:34;;;;;;;6.07;2.72;;;;;;;-5.75;43.36;100024.47;5035540;28;20033;-82
2022/03/12 00:44:59;;;;;;;9.38;3.00;;;;;;;-5.76;43.98;100021.09;5035214;28;20060;-83
2022/03/12 00:47:26;;;;;;;;;;;;;;;-5.79;43.07;100018.34;4994902;28;20404;-82
2022/03/12 00:49:52;;;;;;;3.97;2.40;;;;;;;-5.76;44.07;100022.75;5046420;28;19920;-82
2022/03/12 00:52:18;;;;;;;6.82;2.85;;;;;;;-5.66;43.99;100022.56;5027453;28;20087;-82
2022/03/12 00:54:44;;;;;;;6.82;3.33;;;;;;;-5.60;44.11;100019.56;5034938;28;20029;-82
2022/03/12 00:57:11;;;;;;;6.38;2.70;;;;;;;-5.55;43.89;100024.13;5035800;28;20465;-81
2022/03/12 00:59:40;;;;;;;9.32;3.10;;;;;;;-5.52;43.66;100021.81;5035978;28;20115;-82
2022/03/12 01:02:11;;;;;;;6.38;3.00;;;;;;;-5.40;43.61;100022.63;5020150;28;20420;-82
2022/03/12 01:04:37;;;;;;;6.70;2.83;;;;;;;-5.46;43.44;100021.31;4995399;28;20049;-83
2022/03/12 01:07:03;;;;;;;6.07;2.85;;;;;;;-5.56;43.74;100019.84;5024314;28;20028;-81
2022/03/12 01:09:29;;;;;;;5.47;2.90;;;;;;;-5.53;43.07;100021.72;5014621;28;20522;-81
2022/03/12 01:11:55;;;;;;;5.43;3.10;;;;;;;-5.53;43.23;100009.94;5036395;28;20041;-81
2022/03/12 01:14:21;;;;;;;6.20;2.42;;;;;;;-5.60;43.34;100004.38;5034948;28;20033;-81
2022/03/12 01:16:46;;;;;;;5.43;2.78;;;;;;;-5.59;43.44;100006.13;5042155;28;20087;-82
2022/03/12 01:19:12;;;;;;;8.65;3.17;;;;;;;-5.65;43.81;100002.44;5031149;28;20047;-81
2022/03/12 01:21:38;;;;;;;6.75;3.50;;;;;;;-5.68;43.68;100002.25;5016462;28;20061;-81
2022/03/12 01:24:04;;;;;;;8.57;3.33;;;;;;;-5.65;43.47;100001.56;4998618;28;20144;-82
2022/03/12 01:26:29;;;;;;;6.60;2.90;;;;;;;-5.69;43.60;99995.44;4996109;28;20048;-82
2022/03/12 01:28:55;;;;;;;4.75;2.60;;;;;;;-5.61;44.15;99995.94;5000696;28;20045;-82
2022/03/12 01:31:21;;;;;;;7.65;3.22;;;;;;;-5.54;43.70;99995.56;5035274;28;20045;-82
2022/03/12 01:33:47;;;;;;;9.50;2.85;;;;;;;-5.56;43.85;99997.09;5016150;28;20048;-82
2022/03/12 01:36:12;;;;;;;5.50;2.83;;;;;;;-5.53;44.08;100002.38;5032856;28;20493;-82
2022/03/12 01:38:49;;;;;;;6.40;2.55;;;;;;;-5.44;43.57;99999.56;5007077;28;20053;-82
2022/03/12 01:41:22;;;;;;;5.30;2.90;;;;;;;-5.37;42.21;99996.63;5010770;28;20049;-82
2022/03/12 01:43:49;;;;;;;5.65;2.67;;;;;;;-5.23;42.41;99995.84;5026974;28;20042;-82
2022/03/12 01:46:14;;;;;;;6.90;3.05;;;;;;;-5.14;42.85;99985.44;5008227;28;20049;-83
2022/03/12 01:48:49;;;;;;;6.88;3.30;;;;;;;-5.01;41.52;99984.56;5034618;28;20080;-81
2022/03/12 01:51:15;;;;;;;10.13;3.22;;;;;;;-4.91;41.67;99981.81;5018191;28;20041;-82
2022/03/12 01:53:41;;;;;;;7.63;3.55;;;;;;;-4.91;41.37;99981.81;5037318;28;20123;-82
2022/03/12 01:56:07;;;;;;;8.70;3.00;;;;;;;-4.83;41.20;99980.66;5022835;28;20041;-82
2022/03/12 01:58:34;;;;;;;7.18;3.53;;;;;;;-4.91;41.38;99969.19;5033454;28;20037;-82
2022/03/12 02:01:00;;;;;;;8.40;3.00;;;;;;;-4.87;41.21;99981.25;5030956;28;20556;-81
2022/03/12 02:03:29;;;;;;;7.47;3.55;;;;;;;-4.89;40.97;99972.69;5034681;28;20132;-81
2022/03/12 02:05:56;;;;;;;5.25;3.15;;;;;;;-4.95;41.81;99972.28;5018020;28;20133;-82
2022/03/12 02:08:22;;;;;;;5.70;3.20;;;;;;;-5.00;42.03;99971.13;5034653;28;20047;-82
2022/03/12 02:10:50;;;;;;;7.70;3.08;;;;;;;-4.98;41.73;99967.06;5017857;28;20037;-82
2022/03/12 02:13:17;;;;;;;7.38;3.25;;;;;;;-4.93;41.35;99978.34;5018372;28;20123;-82
2022/03/12 02:15:43;;;;;;;6.63;3.20;;;;;;;-4.88;41.72;99967.72;5035769;28;20094;-83
2022/03/12 02:18:09;;;;;;;;;;;;;;;-4.86;40.27;99967.81;5035222;28;20122;-82
2022/03/12 02:20:36;;;;;;;7.70;2.85;;;;;;;-4.79;39.71;99961.47;5052758;28;19917;-82
2022/03/12 02:23:01;;;;;;;4.13;2.58;;;;;;;-4.52;40.55;99972.41;5017929;28;20029;-82
2022/03/12 02:25:31;;;;;;;9.40;4.18;;;;;;;-4.58;39.18;99960.25;5018300;28;20048;-82
2022/03/12 02:27:58;;;;;;;5.55;3.00;;;;;;;-4.56;39.14;99955.28;5035090;28;20032;-82
2022/03/12 02:30:33;;;;;;;8.13;3.10;;;;;;;-4.73;38.63;99956.78;5018025;28;20040;-82
2022/03/12 02:33:01;;;;;;;7.65;3.00;;;;;;;-4.70;38.66;99960.38;5004968;28;20049;-82
2022/03/12 02:35:33;;;;;;;5.57;2.88;;;;;;;-4.60;38.27;99949.16;5038048;28;20063;-82
2022/03/12 02:37:59;;;;;;;5.85;3.20;;;;;;;-4.60;38.46;99950.03;5023419;28;20048;-82
2022/03/12 02:40:24;;;;;;;6.10;2.60;;;;;;;-4.56;38.53;99942.63;5048923;28;20025;-82
2022/03/12 02:42:54;;;;;;;6.32;2.63;;;;;;;-4.48;38.40;99954.09;5030026;28;20044;-82
2022/03/12 02:45:23;;;;;;;5.53;3.10;;;;;;;-4.49;37.63;99958.28;5021479;28;20040;-81
2022/03/12 02:47:49;;;;;;;8.73;3.05;;;;;;;-4.63;37.89;99961.63;5054339;28;20075;-82
2022/03/12 02:50:15;;;;;;;6.28;2.90;;;;;;;-4.51;37.76;99951.38;5019037;28;20547;-82
2022/03/12 02:52:44;;;;;;;5.03;2.55;;;;;;;-4.47;37.44;99945.72;5027032;28;20076;-82
2022/03/12 02:55:16;;;;;;;7.40;3.08;;;;;;;-4.47;37.41;99948.25;5016214;28;20281;-82
2022/03/12 02:57:44;;;;;;;8.57;2.60;;;;;;;-4.48;37.62;99946.50;5012519;28;20095;-83
2022/03/12 03:00:10;;;;;;;8.15;2.70;;;;;;;-4.44;37.59;99945.91;5022454;28;20048;-82
2022/03/12 03:02:40;;;;;;;4.88;2.35;;;;;;;-4.42;37.88;99939.25;5049050;28;20061;-83
2022/03/12 03:05:31;;;;;;;5.50;2.78;;;;;;;-4.41;36.68;99941.88;5029546;28;20067;-83
2022/03/12 03:07:58;;;;;;;6.22;2.67;;;;;;;-4.49;37.15;99938.03;5005674;28;20041;-83
2022/03/12 03:10:34;;;;;;;3.45;2.22;;;;;;;-4.41;37.24;99941.00;5002234;28;20377;-83
2022/03/12 03:13:29;;;;;;;;;;;;;;;-4.53;37.15;99942.81;5025287;28;20041;-83
2022/03/12 03:16:21;;;;;;;10.05;4.00;;;;;;;-4.64;37.94;99947.22;5039588;28;20008;-82
2022/03/12 03:18:52;;;;;;;8.70;3.67;;;;;;;-4.62;37.75;99945.66;5024327;28;20055;-80
2022/03/12 03:21:22;;;;;;;5.85;3.17;;;;;;;-4.62;37.82;99938.94;5018610;28;20032;-80
2022/03/12 03:23:48;;;;;;;6.07;2.80;;;;;;;-4.63;37.56;99948.97;5002292;28;20068;-81
2022/03/12 03:26:15;;;;;;;6.70;2.63;;;;;;;-4.64;37.39;99944.69;4998807;28;20056;-80
2022/03/12 03:28:41;;;;;;;8.45;2.70;;;;;;;-4.75;36.57;99938.09;5013481;28;20148;-81
2022/03/12 03:31:07;;;;;;;6.80;2.58;;;;;;;-4.65;36.95;99940.41;4997860;28;20813;-81
2022/03/12 03:33:33;;;;;;;;;;;;;;;-4.58;37.13;99936.56;5036216;28;20052;-80
2022/03/12 03:35:58;;;;;;;4.15;2.30;;;;;;;-4.61;37.38;99932.22;5035649;28;20366;-80
2022/03/12 03:38:24;;;;;;;6.05;2.47;;;;;;;-4.68;37.29;99925.03;5049019;28;20040;-80
2022/03/12 03:40:50;;;;;;;5.30;3.13;;;;;;;-4.73;37.02;99927.28;5020334;28;20523;-82
2022/03/12 03:43:18;;;;;;;9.45;4.20;;;;;;;-4.84;37.37;99918.19;5036618;28;20052;-80
2022/03/12 03:45:45;;;;;;;10.45;2.90;;;;;;;-4.89;38.40;99920.44;5020448;28;20041;-81
2022/03/12 03:48:16;;;;;;;7.35;2.88;;;;;;;-5.01;38.52;99918.81;5026544;28;20504;-81
2022/03/12 03:50:42;;;;;;;10.05;3.00;;;;;;;-4.99;38.94;99915.59;5034800;28;20057;-80
2022/03/12 03:53:08;;;;;;;13.27;3.13;;;;;;;-4.84;38.51;99907.19;5036313;28;20083;-81
2022/03/12 03:55:33;;;;;;;7.55;2.97;;;;;;;-4.74;38.45;99924.66;5053083;28;20033;-81
2022/03/12 03:58:00;;;;;;;6.00;2.70;;;;;;;-4.60;38.46;99912.06;5019888;28;20048;-81
2022/03/12 04:00:28;;;;;;;5.90;2.60;;;;;;;-4.56;37.74;99909.72;4999863;28;20497;-81
2022/03/12 04:03:04;;;;;;;5.88;2.33;;;;;;;-4.45;37.51;99903.63;4994325;28;20046;-81
2022/03/12 04:05:38;;;;;;;9.85;3.53;;;;;;;-4.41;37.07;99897.94;4997662;28;20045;-81
2022/03/12 04:08:07;;;;;;;5.30;2.13;;;;;;;-4.33;36.98;99899.28;4997096;28;20053;-81
2022/03/12 04:10:33;;;;;;;8.23;2.70;;;;;;;-4.41;36.73;99898.81;4983972;28;20120;-81
2022/03/12 04:12:59;;;;;;;7.68;2.40;;;;;;;-4.38;36.78;99895.59;5029683;28;20543;-80
2022/03/12 04:15:24;;;;;;;6.07;2.97;;;;;;;-4.31;36.78;99895.16;5013180;28;20030;-80
2022/03/12 04:17:52;;;;;;;6.82;2.50;;;;;;;-4.24;37.06;99899.81;5013192;28;20056;-82
2022/03/12 04:20:21;;;;;;;5.55;2.40;;;;;;;-4.29;38.07;99895.28;4984760;28;20037;-81
2022/03/12 04:22:48;;;;;;;6.50;3.42;;;;;;;-4.14;37.95;99891.97;5016933;28;20080;-83
2022/03/12 04:25:14;;;;;;;13.90;3.92;;;;;;;-4.15;37.02;99889.34;5033297;28;20029;-81
2022/03/12 04:27:44;;;;;;;7.85;3.00;;;;;;;-4.28;37.79;99889.41;4998804;28;20037;-82
2022/03/12 04:30:11;;;;;;;11.88;3.00;;;;;;;-4.26;37.07;99887.84;5011116;28;20404;-82
2022/03/12 04:32:37;;;;;;;10.68;3.20;;;;;;;-4.25;37.69;99890.47;5032110;28;20048;-82
2022/03/12 04:35:05;;;;;;;8.20;2.67;;;;;;;-4.07;37.32;99893.19;5018398;28;20034;-81
2022/03/12 04:37:35;;;;;;;10.82;2.75;;;;;;;-4.03;37.00;99887.53;5020918;28;20067;-85
2022/03/12 04:40:12;;;;;;;9.73;2.80;;;;;;;-4.05;36.73;99901.75;5020660;28;20049;-80
2022/03/12 04:42:39;;;;;;;9.15;2.63;;;;;;;-4.10;36.80;99898.09;5038958;28;20045;-84
2022/03/12 04:45:07;;;;;;;12.50;2.63;;;;;;;-4.20;37.20;99898.34;5008807;28;20441;-86
2022/03/12 04:47:34;;;;;;;8.60;2.75;;;;;;;-4.21;37.37;99909.28;5022743;28;20857;-80
2022/03/12 04:49:59;;;;;;;11.60;3.03;;;;;;;-4.23;38.04;99909.16;5019416;28;20063;-80
2022/03/12 04:52:25;;;;;;;10.15;2.78;;;;;;;-4.15;36.73;99905.41;5035919;28;20072;-74
2022/03/12 04:54:51;;;;;;;10.23;2.72;;;;;;;-4.13;36.96;99918.16;5052545;28;20391;-81
2022/03/12 04:57:16;;;;;;;8.63;2.47;;;;;;;-3.91;36.96;99912.69;5052482;28;20123;-81
2022/03/12 04:59:42;;;;;;;10.13;2.90;;;;;;;-3.89;36.08;99913.66;5028967;28;20046;-79
2022/03/12 05:02:12;;;;;;;7.78;2.60;;;;;;;-4.02;36.42;99916.28;5005937;28;20055;-82
2022/03/12 05:04:37;;;;;;;7.38;2.50;;;;;;;-3.89;37.57;99908.59;5016079;28;20512;-84
2022/03/12 05:07:13;;;;;;;8.23;2.70;;;;;;;-3.87;36.90;99912.06;5027127;28;20068;-81
2022/03/12 05:09:39;;;;;;;13.77;3.00;;;;;;;-3.88;36.85;99911.19;5050368;28;20508;-83
2022/03/12 05:12:05;;;;;;;13.38;3.10;;;;;;;-4.00;36.52;99907.94;5023900;28;20036;-83
2022/03/12 05:14:34;;;;;;;15.20;3.40;;;;;;;-4.10;36.54;99904.03;5034734;28;20404;-83
2022/03/12 05:17:04;;;;;;;12.57;2.90;;;;;;;-4.24;37.31;99906.53;5036247;28;20057;-83
2022/03/12 05:19:30;;;;;;;13.32;3.88;;;;;;;-4.46;37.73;99909.47;5022216;28;20126;-83
2022/03/12 05:21:55;;;;;;;16.58;7.53;;;;;;;-4.47;38.19;99907.72;4998336;28;20033;-82
2022/03/12 05:24:21;;;;;;;17.38;5.60;;;;;;;-4.49;38.58;99914.34;4998247;28;20041;-82
2022/03/12 05:26:47;;;;;;;13.75;3.95;;;;;;;-4.51;38.52;99900.72;5019909;28;20102;-83
2022/03/12 05:29:15;;;;;;;14.57;4.13;;;;;;;-4.50;38.98;99912.59;5033263;28;20444;-83
2022/03/12 05:31:40;;;;;;;15.43;4.35;;;;;;;-4.49;39.09;99920.31;5066328;28;20032;-83
2022/03/12 05:34:06;;;;;;;16.40;5.28;;;;;;;-4.42;39.42;99922.41;5024381;28;20458;-82
2022/03/12 05:36:32;;;;;;;16.73;5.03;;;;;;;-4.42;39.47;99919.00;5051894;28;20094;-78
2022/03/12 05:38:59;;;;;;;21.52;5.30;;;;;;;-4.39;39.70;99909.06;5041905;28;20114;-82
2022/03/12 05:41:26;;;;;;;14.90;4.70;;;;;;;-4.39;39.44;99901.47;5046065;28;20025;-81
2022/03/12 05:43:53;;;;;;;12.25;3.50;;;;;;;-4.38;39.83;99899.00;5041051;28;20052;-80
2022/03/12 05:46:21;;;;;;;16.60;4.22;;;;;;;-4.39;40.75;99893.88;5019509;28;20033;-81
2022/03/12 05:48:48;;;;;;;15.23;4.05;;;;;;;-4.38;41.16;99895.59;5001418;28;20045;-82
2022/03/12 05:51:14;;;;;;;14.45;4.45;;;;;;;-4.25;41.94;99897.22;5036005;28;20030;-81
2022/03/12 05:53:43;;;;;;;20.05;4.32;;;;;;;-4.18;41.07;99894.22;5040748;28;20468;-81
2022/03/12 05:56:08;;;;;;;18.23;4.05;;;;;;;-3.83;43.05;99906.38;5041680;28;20057;-81
2022/03/12 05:58:38;;;;;;;11.20;4.45;;;;;;;-3.65;41.69;99899.81;5024607;28;20033;-82
2022/03/12 06:01:03;;;;;;;16.85;4.32;;;;;;;-3.47;42.47;99894.91;5052211;28;20050;-81
2022/03/12 06:03:29;;;;;;;11.95;4.80;;;;;;;-3.38;40.33;99902.13;5019091;28;20045;-81
2022/03/12 06:05:58;;;;;;;12.48;3.63;;;;;;;-3.22;41.19;99909.78;5050111;28;20045;-80
2022/03/12 06:08:27;;;;;;;13.30;4.05;;;;;;;-3.00;39.83;99910.94;5019315;28;20037;-83
2022/03/12 06:10:56;;;;;;;16.95;3.97;;;;;;;-2.84;38.89;99908.41;5055572;28;20041;-82
2022/03/12 06:13:27;;;;;;;11.13;3.78;;;;;;;-2.77;38.84;99923.19;5038880;28;20048;-82
2022/03/12 06:15:58;;;;;;;8.18;3.80;;;;;;;-2.63;39.69;99932.41;5037336;28;20104;-81
2022/03/12 06:18:29;;;;;;;8.30;3.60;;;;;;;-2.59;41.61;99933.44;5021985;28;20041;-81
2022/03/12 06:20:55;;;;;;;14.77;3.13;;;;;;;-2.28;42.84;99935.91;5020072;28;20125;-82
2022/03/12 06:23:21;;;;;;;;;;;;;;;-2.78;45.03;99940.91;5020493;28;20036;-81
2022/03/12 06:25:47;;;;;;;14.23;4.82;;;;;;;-2.79;47.62;99924.78;5021166;28;19921;-86
2022/03/12 06:28:13;;;;;;;8.05;3.50;;;;;;;-2.74;48.79;99922.50;5036161;28;20030;-83
2022/03/12 06:30:41;;;;;;;12.32;5.80;;;;;;;-2.90;50.70;99928.41;5036410;28;20481;-82
2022/03/12 06:33:06;;;;;;;13.52;4.93;;;;;;;-3.14;52.56;99944.06;5034230;28;20378;-81
2022/03/12 06:35:32;;;;;;;12.35;4.72;;;;;;;-3.11;53.14;99933.22;5005253;28;20077;-83
2022/03/12 06:37:58;;;;;;;11.10;5.35;;;;;;;-3.24;54.76;99920.66;5058842;28;20033;-81
2022/03/12 06:40:28;;;;;;;;;;;;;;;-3.31;57.25;99924.50;5043160;28;20093;-77
2022/03/12 06:42:54;;;;;;;10.48;5.00;;;;;;;-3.23;56.33;99913.13;5035992;28;19917;-83
2022/03/12 06:45:20;;;;;;;14.00;6.03;;;;;;;-3.29;56.84;99914.47;5038382;28;20084;-82
2022/03/12 06:47:46;;;;;;;9.95;5.95;;;;;;;-3.36;58.08;99915.78;5036451;28;20061;-79
2022/03/12 06:50:17;;;;;;;13.82;6.03;;;;;;;-3.40;59.07;99911.31;5037301;28;20057;-84
2022/03/12 06:52:47;;;;;;;9.85;5.60;;;;;;;-3.48;60.45;99910.00;5037041;28;20045;-81
2022/03/12 06:55:13;;;;;;;12.63;6.40;;;;;;;-3.47;60.61;99910.13;5021456;28;20033;-84
2022/03/12 06:57:40;;;;;;;13.70;5.95;;;;;;;-3.49;61.25;99909.13;5024293;28;20026;-81
2022/03/12 07:00:11;;;;;;;11.07;5.95;;;;;;;-3.39;61.32;99910.50;5024175;28;20041;-82
2022/03/12 07:02:37;;;;;;;12.27;6.22;;;;;;;-3.38;62.23;99914.81;5023643;28;20049;-83
2022/03/12 07:05:02;;;;;;;11.95;5.80;;;;;;;-3.32;62.56;99920.22;5039158;28;20102;-82
2022/03/12 07:07:28;;;;;;;12.73;6.40;;;;;;;-3.25;62.61;99917.25;5036541;28;20135;-81
2022/03/12 07:09:54;;;;;;;12.95;6.45;;;;;;;-3.26;64.24;99912.94;5021433;28;20044;-82
2022/03/12 07:12:19;;;;;;;13.07;6.43;;;;;;;-3.10;63.84;99915.53;5004499;28;20053;-84
2022/03/12 07:14:45;;;;;;;14.95;8.45;;;;;;;-3.22;63.39;99907.25;5033170;28;20080;-82
2022/03/12 07:17:11;;;;;;;12.93;6.60;;;;;;;-3.18;63.31;99908.28;5016675;28;20099;-83
2022/03/12 07:19:37;;;;;;;11.50;5.47;;;;;;;-3.01;63.28;99891.44;5016589;28;20389;-82
2022/03/12 07:22:03;;;;;;;12.38;5.72;;;;;;;-2.92;62.69;99877.56;5048536;28;20120;-83
2022/03/12 07:24:28;;;;;;;;;;;;;;;-2.84;62.97;99872.88;5034184;28;20079;-83
2022/03/12 07:26:54;;;;;;;8.68;4.45;;;;;;;-2.78;62.90;99863.06;5034257;28;19917;-82
2022/03/12 07:29:20;;;;;;;11.73;5.38;;;;;;;-2.63;62.82;99871.47;5014999;28;20033;-85
2022/03/12 07:31:46;;;;;;;11.68;5.90;;;;;;;-2.62;62.42;99873.19;5029712;28;20042;-82
2022/03/12 07:34:12;;;;;;;9.60;4.72;;;;;;;-2.54;62.30;99881.22;5018156;28;20131;-85
2022/03/12 07:36:37;;;;;;;;;;;;;;;-2.37;61.68;99889.72;5020558;28;20041;-84
2022/03/12 07:39:03;;;;;;;11.52;5.07;;;;;;;-2.35;61.29;99890.66;5053163;28;19912;-84
2022/03/12 07:41:30;;;;;;;9.68;5.40;;;;;;;-2.47;61.26;99882.44;5024819;28;20059;-83
2022/03/12 07:43:56;;;;;;;11.25;6.00;;;;;;;-2.56;62.22;99876.06;5069327;28;20495;-83
2022/03/12 07:46:21;;;;;;;11.63;6.07;;;;;;;-2.81;62.48;99880.66;5005393;28;20048;-83
2022/03/12 07:48:48;;;;;;;16.73;6.43;;;;;;;-2.97;62.81;99883.22;5016960;28;20041;-84
2022/03/12 07:51:14;;;;;;;12.85;5.90;;;;;;;-3.00;63.17;99893.19;5020527;28;20040;-83
2022/03/12 07:53:39;;;;;;;12.18;5.63;;;;;;;-2.95;63.30;99892.63;5023002;28;20107;-82
2022/03/12 07:56:06;;;;;;;12.10;5.72;;;;;;;-2.88;64.15;99893.84;5016086;28;20120;-82
2022/03/12 07:58:31;;;;;;;13.30;6.38;;;;;;;-2.82;63.90;99895.03;5029218;28;20033;-81
2022/03/12 08:00:58;;;;;;;13.93;6.68;;;;;;;-3.21;64.41;99887.81;5045880;28;20088;-80
2022/03/12 08:03:24;;;;;;;;;;;;;;;-3.26;65.54;99887.56;5030335;28;20154;-82
2022/03/12 08:05:50;;;;;;;10.65;5.85;;;;;;;-3.17;65.07;99880.44;5048772;28;20343;-83
2022/03/12 08:08:17;;;;;;;;;;;;;;;-3.26;64.98;99877.41;5023074;28;20552;-82
2022/03/12 08:13:29;;;;;;;12.63;6.30;;;;;;;-3.42;64.41;99869.78;5039747;28;20036;-81
2022/03/12 08:15:54;;;;;;;;;;;;;;;-3.58;64.02;99870.59;5052038;28;20082;-81
2022/03/12 08:18:21;;;;;;;17.80;8.43;;;;;;;-3.70;65.17;99869.94;5053239;28;20361;-82
2022/03/12 08:20:48;;;;;;;17.73;5.90;;;;;;;-3.64;64.75;99871.13;5020958;28;20032;-82
2022/03/12 08:23:14;;;;;;;14.38;5.70;;;;;;;-3.59;63.94;99879.00;5019674;28;20128;-83
2022/03/12 08:25:42;;;;;;;13.40;5.82;;;;;;;-3.65;64.35;99889.69;5029004;28;20037;-82
2022/03/12 08:28:09;;;;;;;13.25;6.18;;;;;;;-3.64;65.02;99885.47;5034432;28;20480;-84
2022/03/12 08:30:36;;;;;;;11.10;5.63;;;;;;;-3.56;64.09;99889.31;5051477;28;20040;-82
2022/03/12 08:33:04;;;;;;;12.98;5.90;;;;;;;-3.44;63.93;99889.09;5038779;28;20436;-81
2022/03/12 08:35:29;;;;;;;35.75;19.25;;;;;;;-3.32;64.05;99892.31;5053014;28;20071;-81
2022/03/12 08:37:55;;;;;;;17.15;6.53;;;;;;;-3.26;64.42;99895.19;5053570;28;20048;-81
2022/03/12 08:40:22;;;;;;;13.65;6.25;;;;;;;-3.39;64.40;99880.06;5019338;28;20064;-82
2022/03/12 08:42:48;;;;;;;12.73;6.90;;;;;;;-3.45;64.53;99877.22;5028936;28;20033;-82
2022/03/12 08:45:14;;;;;;;10.55;6.60;;;;;;;-3.50;65.29;99879.50;5014909;28;20718;-81
2022/03/12 08:47:40;;;;;;;11.35;6.45;;;;;;;-3.32;64.68;99884.72;5052602;28;20431;-81
2022/03/12 08:50:09;;;;;;;14.32;5.95;;;;;;;-3.40;65.01;99876.66;5052976;28;20037;-81
2022/03/12 08:52:36;;;;;;;13.82;6.00;;;;;;;-3.29;64.64;99881.47;5045435;28;20041;-82
2022/03/12 08:55:02;;;;;;;12.52;6.22;;;;;;;-3.24;63.68;99873.31;4980857;28;20117;-81
2022/03/12 08:57:28;;;;;;;12.68;7.45;;;;;;;-3.01;63.93;99879.63;5001684;28;20044;-82
2022/03/12 08:59:54;;;;;;;15.43;7.38;;;;;;;-2.97;64.11;99876.47;5037505;28;20036;-82
2022/03/12 09:02:20;;;;;;;;;;;;;;;-3.04;63.79;99878.59;5031508;28;20070;-82
2022/03/12 09:04:47;;;;;;;11.38;6.15;;;;;;;-3.28;64.09;99884.09;5041869;28;20413;-82
2022/03/12 09:07:13;;;;;;;9.68;5.50;;;;;;;-3.33;64.71;99888.03;5018710;28;20052;-84
2022/03/12 09:09:38;;;;;;;10.77;5.43;;;;;;;-3.35;64.97;99880.31;5019790;28;20483;-83
2022/03/12 09:12:05;;;;;;;12.15;6.00;;;;;;;-3.40;65.62;99883.41;5038908;28;20048;-84
2022/03/12 09:14:34;;;;;;;17.00;6.60;;;;;;;-3.42;67.08;99887.53;5048397;28;20032;-81
2022/03/12 09:17:04;;;;;;;10.95;6.28;;;;;;;-3.47;67.96;99878.81;5027034;28;20052;-84
2022/03/12 09:19:29;;;;;;;10.73;6.05;;;;;;;-3.54;68.78;99881.78;5052315;28;20033;-81
2022/03/12 09:21:56;;;;;;;13.52;6.35;;;;;;;-3.56;69.09;99878.31;5052667;28;20043;-81
2022/03/12 09:24:21;;;;;;;15.23;6.63;;;;;;;-3.48;69.50;99882.09;5036712;28;20554;-82
2022/03/12 09:26:48;;;;;;;11.93;6.15;;;;;;;-3.28;69.13;99876.47;4999112;28;20076;-82
2022/03/12 09:29:14;;;;;;;13.75;9.07;;;;;;;-3.43;68.87;99881.59;4999181;28;20037;-83
2022/03/12 09:31:39;;;;;;;15.43;7.32;;;;;;;-3.39;70.27;99882.63;4995679;28;20460;-81
2022/03/12 09:34:08;;;;;;;13.88;7.22;;;;;;;-3.41;70.47;99884.22;5032864;28;20036;-82
2022/03/12 09:36:35;;;;;;;14.00;8.07;;;;;;;-3.14;70.93;99877.22;5035144;28;20041;-81
2022/03/12 09:39:04;;;;;;;14.65;7.05;;;;;;;-3.05;70.61;99887.88;5018940;28;20028;-81
2022/03/12 09:41:30;;;;;;;12.32;7.10;;;;;;;-3.07;70.45;99879.28;5051361;28;20068;-81
2022/03/12 09:43:56;;;;;;;15.40;8.93;;;;;;;-3.16;70.98;99869.53;5036237;28;20028;-82
2022/03/12 09:46:22;;;;;;;11.98;7.43;;;;;;;-3.03;71.85;99873.56;5039196;28;20072;-82
2022/03/12 09:48:47;;;;;;;13.90;7.30;;;;;;;-2.90;71.79;99875.97;5025060;28;20111;-81
2022/03/12 09:51:14;;;;;;;15.13;8.10;;;;;;;-2.90;71.79;99865.81;5022977;28;20131;-84
2022/03/12 09:53:40;;;;;;;14.73;8.18;;;;;;;-2.88;72.75;99878.63;5022979;28;20036;-82
2022/03/12 09:56:06;;;;;;;13.75;8.05;;;;;;;-2.79;73.52;99865.50;5022640;28;20123;-81
2022/03/12 09:58:32;;;;;;;14.38;8.10;;;;;;;-2.77;72.38;99877.50;5038852;28;20040;-81
2022/03/12 10:00:58;;;;;;;19.33;8.60;;;;;;;-2.76;72.65;99879.22;5054939;28;20503;-83
2022/03/12 10:03:24;;;;;;;14.20;7.80;;;;;;;-2.78;72.93;99864.72;5055255;28;20131;-81
2022/03/12 10:05:50;;;;;;;14.95;7.80;;;;;;;-2.57;72.83;99874.34;5038258;28;20478;-80
2022/03/12 10:08:16;;;;;;;13.98;7.80;;;;;;;-2.42;72.72;99871.69;5045440;28;20033;-81
2022/03/12 10:10:42;;;;;;;13.18;7.63;;;;;;;-2.48;72.55;99875.56;5023925;28;20101;-82
2022/03/12 10:13:10;;;;;;;12.35;7.65;;;;;;;-2.42;72.67;99873.38;5033314;28;20037;-83
2022/03/12 10:15:37;;;;;;;16.50;7.50;;;;;;;-2.20;72.97;99873.66;5018863;28;20044;-82
2022/03/12 10:18:02;;;;;;;;;;;;;;;-2.06;73.28;99877.75;5018720;28;20113;-82
2022/03/12 10:20:30;;;;;;;13.30;7.75;;;;;;;-1.91;72.60;99877.63;5018874;28;19940;-82
2022/03/12 10:22:56;;;;;;;13.57;8.18;;;;;;;-1.82;72.11;99877.19;5018960;28;20033;-81
2022/03/12 10:25:22;;;;;;;14.02;8.10;;;;;;;-1.57;72.65;99877.56;5018159;28;20049;-82
2022/03/12 10:27:48;;;;;;;20.23;8.18;;;;;;;-1.48;71.57;99876.25;5013626;28;20510;-81
2022/03/12 10:30:14;;;;;;;15.25;8.38;;;;;;;-1.41;70.78;99870.66;5037053;28;20044;-83
2022/03/12 10:32:46;;;;;;;15.90;8.82;;;;;;;-1.11;71.93;99873.72;5031598;28;20080;-82
2022/03/12 10:35:18;;;;;;;13.98;7.18;;;;;;;-0.85;70.42;99869.81;5035806;28;20040;-82
2022/03/12 10:37:44;;;;;;;12.05;7.57;;;;;;;-0.92;68.80;99880.53;5029444;28;20042;-82
2022/03/12 10:40:11;;;;;;;15.45;9.35;;;;;;;-0.70;69.40;99879.81;5047247;28;20036;-81
2022/03/12 10:43:07;;;;;;;14.45;8.18;;;;;;;-0.49;67.80;99877.34;5011740;28;20056;-81
2022/03/12 10:45:50;;;;;;;20.13;8.70;;;;;;;-0.41;67.10;99874.31;5034183;28;20037;-81
2022/03/12 10:48:19;;;;;;;13.13;8.27;;;;;;;-0.37;67.06;99880.41;5038044;28;20119;-81
2022/03/12 10:50:47;;;;;;;14.75;7.40;;;;;;;-0.47;67.14;99880.81;5018636;28;20049;-81
2022/03/12 10:53:13;;;;;;;11.68;5.68;;;;;;;-0.42;67.35;99875.09;5009595;28;20044;-81
2022/03/12 10:55:42;;;;;;;;;;;;;;;-0.53;68.24;99878.88;5054536;28;20029;-82
2022/03/12 10:58:16;;;;;;;14.88;8.50;;;;;;;-0.58;68.48;99876.13;5024455;28;20345;-83
2022/03/12 11:00:49;;;;;;;14.13;8.60;;;;;;;-0.55;68.60;99876.28;5021205;28;20065;-81
2022/03/12 11:03:20;;;;;;;12.30;8.13;;;;;;;-0.68;68.76;99873.13;5054046;28;20123;-81
2022/03/12 11:05:47;;;;;;;16.52;8.90;;;;;;;-0.71;69.21;99876.41;5021274;28;20412;-82
2022/03/12 11:08:42;;;;;;;14.65;8.20;;;;;;;-0.76;69.36;99875.34;5021097;28;20383;-82
2022/03/12 11:11:12;;;;;;;14.50;7.68;;;;;;;-0.70;69.09;99875.59;5023989;28;20053;-81
2022/03/12 11:13:47;;;;;;;14.10;8.13;;;;;;;-0.79;69.33;99880.28;5034335;28;20041;-81
2022/03/12 11:16:31;;;;;;;15.52;8.68;;;;;;;-0.78;70.92;99882.00;5018874;28;20045;-82
2022/03/12 11:19:07;;;;;;;13.15;8.02;;;;;;;-0.80;70.46;99883.63;5042604;28;20040;-81
2022/03/12 11:21:44;;;;;;;11.80;7.43;;;;;;;-0.69;70.86;99887.50;5021805;28;20127;-81
2022/03/12 11:24:22;;;;;;;12.98;7.03;;;;;;;-0.67;70.06;99880.84;5030495;28;20068;-80
2022/03/12 11:26:56;;;;;;;11.10;6.85;;;;;;;-0.62;69.89;99878.47;5034017;28;20420;-81
2022/03/12 11:29:23;;;;;;;10.95;6.57;;;;;;;-0.62;69.86;99883.59;5014044;28;20046;-81
2022/03/12 11:31:49;;;;;;;11.20;6.95;;;;;;;-0.60;69.08;99884.50;5007414;28;20034;-82
2022/03/12 11:34:25;;;;;;;10.90;6.72;;;;;;;-0.56;69.82;99884.72;5026637;28;20497;-82
2022/03/12 11:36:59;;;;;;;11.52;7.35;;;;;;;-0.57;70.67;99877.88;5034180;28;20055;-81